Time;durP1;ratioP1;P1;durP2;ratioP2;P2;SDS_P1;SDS_P2;PMS_P1;PMS_P2;Temp;Humidity;BMP_temperature;BMP_pressure;BME280_temperature;BME280_humidity;BME280_pressure;Samples;Min_cycle;Max_cycle;Signal;HPM_P1;HPM_P2
2022/09/14 00:02:22;;;;;;;3.97;2.87;;;14.00;99.90;;;;;;5055619;28;20202;-67
2022/09/14 00:04:47;;;;;;;6.03;2.10;;;13.90;99.90;;;;;;5050796;28;20212;-67
2022/09/14 00:07:13;;;;;;;11.37;2.30;;;13.90;99.90;;;;;;5043770;28;20219;-68
2022/09/14 00:09:38;;;;;;;5.40;1.30;;;13.90;99.90;;;;;;5051978;28;20195;-62
2022/09/14 00:12:04;;;;;;;5.57;1.77;;;13.90;99.90;;;;;;5046732;28;20751;-62
2022/09/14 00:14:29;;;;;;;8.47;2.00;;;13.90;99.90;;;;;;5051749;28;20538;-62
2022/09/14 00:16:55;;;;;;;6.10;1.70;;;13.90;99.90;;;;;;5054135;28;20238;-62
2022/09/14 00:19:25;;;;;;;5.97;1.67;;;13.80;99.90;;;;;;5059435;28;20273;-62
2022/09/14 00:21:53;;;;;;;5.63;1.60;;;13.80;99.90;;;;;;5053512;28;20607;-61
2022/09/14 00:24:20;;;;;;;7.33;1.83;;;13.80;99.90;;;;;;5047544;28;20558;-61
2022/09/14 00:26:45;;;;;;;6.70;1.80;;;13.70;99.90;;;;;;5050641;28;20685;-62
2022/09/14 00:29:11;;;;;;;4.13;1.93;;;13.70;99.90;;;;;;5052246;28;20193;-61
2022/09/14 00:31:38;;;;;;;3.97;1.57;;;13.70;99.90;;;;;;5054577;28;20210;-62
2022/09/14 00:34:05;;;;;;;7.97;2.10;;;13.70;99.90;;;;;;5056690;28;20308;-62
2022/09/14 00:36:32;;;;;;;6.97;2.67;;;13.60;99.90;;;;;;5054263;28;20210;-62
2022/09/14 00:38:59;;;;;;;8.47;1.83;;;13.60;99.90;;;;;;5053653;28;20174;-61
2022/09/14 00:41:34;;;;;;;4.60;1.73;;;13.60;99.90;;;;;;5051585;28;20216;-62
2022/09/14 00:44:03;;;;;;;3.37;1.80;;;13.60;99.90;;;;;;5048635;28;20178;-62
2022/09/14 00:46:34;;;;;;;3.93;1.53;;;13.50;99.90;;;;;;5048514;28;20198;-62
2022/09/14 00:49:02;;;;;;;5.67;1.40;;;13.50;99.90;;;;;;5055069;28;20189;-61
2022/09/14 00:51:31;;;;;;;8.03;2.03;;;13.40;99.90;;;;;;5055463;28;20221;-62
2022/09/14 00:53:57;;;;;;;6.50;1.80;;;13.40;99.90;;;;;;5056722;28;20242;-61
2022/09/14 00:56:24;;;;;;;2.10;1.50;;;13.40;99.90;;;;;;5058543;28;20217;-62
2022/09/14 00:58:52;;;;;;;4.03;1.70;;;13.40;99.90;;;;;;5051838;28;20778;-62
2022/09/14 01:01:18;;;;;;;8.90;1.73;;;13.30;99.90;;;;;;5061656;28;20442;-62
2022/09/14 01:03:43;;;;;;;8.77;1.80;;;13.30;99.90;;;;;;5061548;28;20194;-62
2022/09/14 01:06:17;;;;;;;7.90;1.83;;;13.30;99.90;;;;;;5059447;28;20194;-61
2022/09/14 01:09:11;;;;;;;5.73;2.57;;;13.30;99.90;;;;;;5057869;28;20191;-61
2022/09/14 01:12:06;;;;;;;5.97;2.03;;;13.30;99.90;;;;;;5054688;28;20202;-61
2022/09/14 01:14:52;;;;;;;6.13;2.03;;;13.30;99.90;;;;;;5023675;28;20202;-61
2022/09/14 01:17:37;;;;;;;4.73;1.70;;;13.30;99.90;;;;;;5056432;28;20309;-62
2022/09/14 01:20:13;;;;;;;3.23;1.57;;;13.20;99.90;;;;;;5056128;28;20661;-62
2022/09/14 01:23:18;;;;;;;8.53;1.97;;;13.20;99.90;;;;;;5050943;28;20203;-62
2022/09/14 01:26:05;;;;;;;2.50;1.53;;;13.20;99.90;;;;;;5060863;28;20205;-62
2022/09/14 01:28:51;;;;;;;6.17;1.93;;;13.20;99.90;;;;;;5057474;28;20770;-62
2022/09/14 01:31:26;;;;;;;5.37;1.43;;;13.20;99.90;;;;;;5051082;28;20711;-62
2022/09/14 01:34:11;;;;;;;4.33;2.00;;;13.20;99.90;;;;;;5053310;28;20949;-62
2022/09/14 01:36:41;;;;;;;7.23;2.10;;;13.20;99.90;;;;;;5050059;28;20251;-62
2022/09/14 01:39:08;;;;;;;6.13;1.97;;;13.20;99.90;;;;;;5059947;28;20262;-62
2022/09/14 01:41:35;;;;;;;7.77;2.07;;;13.20;99.90;;;;;;5056709;28;20202;-62
2022/09/14 01:44:19;;;;;;;6.03;1.50;;;13.10;99.90;;;;;;5061119;28;20187;-61
2022/09/14 01:46:49;;;;;;;5.87;2.40;;;13.10;99.90;;;;;;5050982;28;20194;-61
2022/09/14 01:49:21;;;;;;;5.67;1.87;;;13.10;99.90;;;;;;5062855;28;20198;-62
2022/09/14 01:52:01;;;;;;;6.50;2.17;;;13.00;99.90;;;;;;5055025;28;20213;-62
2022/09/14 01:54:34;;;;;;;6.37;2.10;;;13.10;99.90;;;;;;5061415;28;20197;-62
2022/09/14 01:57:08;;;;;;;3.33;1.83;;;13.10;99.90;;;;;;5053024;28;20214;-61
2022/09/14 01:59:42;;;;;;;4.07;2.17;;;13.10;99.90;;;;;;5066861;28;20236;-62
2022/09/14 02:02:24;;;;;;;7.60;2.23;;;13.00;99.90;;;;;;5052477;28;20745;-62
2022/09/14 02:05:11;;;;;;;5.60;2.40;;;13.00;99.90;;;;;;5057682;28;20203;-62
2022/09/14 02:07:37;;;;;;;2.87;1.70;;;12.90;99.90;;;;;;5057917;28;20247;-62
2022/09/14 02:10:08;;;;;;;3.97;1.80;;;13.00;99.90;;;;;;5059326;28;20700;-62
2022/09/14 02:12:33;;;;;;;3.27;1.67;;;13.00;99.90;;;;;;5053651;28;20209;-67
2022/09/14 02:14:59;;;;;;;3.97;1.77;;;13.00;99.90;;;;;;5051601;28;20522;-67
2022/09/14 02:17:25;;;;;;;6.47;1.83;;;13.00;99.90;;;;;;5050103;28;20225;-71
2022/09/14 02:19:59;;;;;;;7.10;2.40;;;13.00;99.90;;;;;;5048545;28;20619;-66
2022/09/14 02:22:27;;;;;;;5.23;2.23;;;12.90;99.90;;;;;;5054837;28;20205;-65
2022/09/14 02:24:54;;;;;;;3.63;1.77;;;12.90;99.90;;;;;;5061612;28;20198;-65
2022/09/14 02:27:20;;;;;;;8.93;1.90;;;12.90;99.90;;;;;;5055188;28;20245;-66
2022/09/14 02:29:45;;;;;;;6.43;2.17;;;12.90;99.90;;;;;;5053019;28;20923;-66
2022/09/14 02:32:35;;;;;;;4.50;1.80;;;12.90;99.90;;;;;;5048573;28;20249;-65
2022/09/14 02:35:07;;;;;;;4.03;2.10;;;12.90;99.90;;;;;;5058618;28;20623;-66
2022/09/14 02:37:43;;;;;;;5.97;3.03;;;12.90;99.90;;;;;;5054945;28;20209;-66
2022/09/14 02:40:31;;;;;;;4.63;2.30;;;12.90;99.90;;;;;;5062350;28;20188;-66
2022/09/14 02:43:26;;;;;;;5.73;2.20;;;12.90;99.90;;;;;;5057940;28;20209;-67
2022/09/14 02:46:04;;;;;;;8.80;2.10;;;12.80;99.90;;;;;;5061835;28;20288;-61
2022/09/14 02:49:03;;;;;;;3.20;2.07;;;12.80;99.90;;;;;;5058196;28;20260;-67
2022/09/14 02:51:44;;;;;;;5.93;2.23;;;12.80;99.90;;;;;;4998235;28;20282;-67
2022/09/14 02:54:17;;;;;;;12.57;2.07;;;12.80;99.90;;;;;;5055055;28;20178;-66
2022/09/14 02:56:43;;;;;;;5.43;2.30;;;12.80;99.90;;;;;;5053091;28;20675;-66
2022/09/14 02:59:09;;;;;;;3.93;2.07;;;12.80;99.90;;;;;;5055058;28;20222;-66
2022/09/14 03:01:35;;;;;;;8.40;2.17;;;12.70;99.90;;;;;;5052263;28;20190;-67
2022/09/14 03:04:00;;;;;;;4.53;2.10;;;12.70;99.90;;;;;;5055820;28;20186;-67
2022/09/14 03:06:26;;;;;;;7.10;2.60;;;12.80;99.90;;;;;;5051286;28;20335;-67
2022/09/14 03:08:51;;;;;;;4.23;2.40;;;12.70;99.90;;;;;;5054380;28;20290;-67
2022/09/14 03:11:16;;;;;;;6.87;2.20;;;12.70;99.90;;;;;;5048695;28;20589;-67
2022/09/14 03:13:43;;;;;;;5.97;2.13;;;12.70;99.90;;;;;;5049898;28;20202;-67
2022/09/14 03:16:11;;;;;;;4.73;2.37;;;12.70;99.90;;;;;;5049009;28;20245;-67
2022/09/14 03:18:37;;;;;;;4.47;2.00;;;12.70;99.90;;;;;;5056400;28;20293;-66
2022/09/14 03:21:04;;;;;;;5.63;2.00;;;12.70;99.90;;;;;;5054578;28;20189;-67
2022/09/14 03:23:30;;;;;;;5.00;2.03;;;12.70;99.90;;;;;;5050866;28;20201;-67
2022/09/14 03:25:55;;;;;;;10.90;2.20;;;12.70;99.90;;;;;;5056564;28;20246;-67
2022/09/14 03:28:21;;;;;;;6.53;2.10;;;12.70;99.90;;;;;;5048778;28;20202;-67
2022/09/14 03:30:47;;;;;;;9.30;2.20;;;12.70;99.90;;;;;;5051336;28;20238;-67
2022/09/14 03:33:14;;;;;;;4.03;1.90;;;12.70;99.90;;;;;;5046278;28;20242;-66
2022/09/14 03:35:39;;;;;;;8.60;2.43;;;12.70;99.90;;;;;;5055073;28;20216;-67
2022/09/14 03:38:05;;;;;;;10.47;2.63;;;12.70;99.90;;;;;;5047529;28;20200;-67
2022/09/14 03:40:31;;;;;;;3.63;1.83;;;12.60;99.90;;;;;;5053517;28;20230;-67
2022/09/14 03:42:56;;;;;;;10.13;2.53;;;12.60;99.90;;;;;;5052142;28;20758;-67
2022/09/14 03:45:22;;;;;;;5.10;2.33;;;12.60;99.90;;;;;;5051803;28;20599;-67
2022/09/14 03:47:48;;;;;;;5.87;2.47;;;12.60;99.90;;;;;;5056910;28;20748;-67
2022/09/14 03:50:15;;;;;;;4.27;1.80;;;12.60;99.90;;;;;;5062406;28;20227;-67
2022/09/14 03:52:41;;;;;;;6.30;2.37;;;12.60;99.90;;;;;;5060841;28;20694;-67
2022/09/14 03:55:08;;;;;;;4.37;2.33;;;12.60;99.90;;;;;;5057775;28;20196;-67
2022/09/14 03:57:34;;;;;;;4.67;1.97;;;12.60;99.90;;;;;;5058827;28;20876;-67
2022/09/14 03:59:59;;;;;;;3.40;1.90;;;12.60;99.90;;;;;;5051766;28;20309;-67
2022/09/14 04:02:26;;;;;;;6.57;2.67;;;12.60;99.90;;;;;;5053716;28;20197;-67
2022/09/14 04:04:52;;;;;;;6.00;2.60;;;12.60;99.90;;;;;;5051412;28;20185;-66
2022/09/14 04:07:18;;;;;;;8.50;2.60;;;12.60;99.90;;;;;;5056698;28;20202;-65
2022/09/14 04:09:44;;;;;;;6.90;2.50;;;12.60;99.90;;;;;;5054005;28;20486;-75
2022/09/14 04:12:09;;;;;;;4.93;2.90;;;12.60;99.90;;;;;;5055914;28;20692;-67
2022/09/14 04:14:35;;;;;;;8.37;3.10;;;12.60;99.90;;;;;;5049404;28;20205;-67
2022/09/14 04:17:01;;;;;;;3.30;2.40;;;12.60;99.90;;;;;;5049068;28;20228;-61
2022/09/14 04:19:27;;;;;;;3.57;2.63;;;12.60;99.90;;;;;;5054560;28;20190;-61
2022/09/14 04:21:52;;;;;;;11.50;2.67;;;12.60;99.90;;;;;;5049260;28;20191;-63
2022/09/14 04:24:17;;;;;;;5.27;2.10;;;12.60;99.90;;;;;;5058874;28;20911;-61
2022/09/14 04:26:44;;;;;;;8.73;3.30;;;12.60;99.90;;;;;;5051669;28;20236;-61
2022/09/14 04:29:11;;;;;;;7.70;2.60;;;12.60;99.90;;;;;;5061040;28;20723;-62
2022/09/14 04:31:37;;;;;;;3.07;2.13;;;12.70;99.90;;;;;;5056589;28;20277;-62
2022/09/14 04:34:03;;;;;;;6.97;2.77;;;12.70;99.90;;;;;;5054351;28;20312;-62
2022/09/14 04:36:29;;;;;;;6.03;2.63;;;12.70;99.90;;;;;;5064141;28;20205;-62
2022/09/14 04:38:57;;;;;;;8.77;2.70;;;12.70;99.90;;;;;;5049294;28;20209;-62
2022/09/14 04:41:23;;;;;;;6.80;2.93;;;12.60;99.90;;;;;;5054852;28;20979;-62
2022/09/14 04:43:50;;;;;;;4.73;2.57;;;12.60;99.90;;;;;;5044121;28;20220;-62
2022/09/14 04:46:21;;;;;;;4.50;2.50;;;12.60;99.90;;;;;;5045659;28;20285;-61
2022/09/14 04:48:48;;;;;;;10.27;3.53;;;12.60;99.90;;;;;;5044568;28;20628;-61
2022/09/14 04:51:16;;;;;;;3.60;3.30;;;12.60;99.90;;;;;;5049209;28;20194;-62
2022/09/14 04:53:42;;;;;;;7.73;2.40;;;12.60;99.90;;;;;;5047319;28;20205;-62
2022/09/14 04:56:10;;;;;;;7.10;2.53;;;12.60;99.90;;;;;;5052804;28;20222;-62
2022/09/14 04:58:38;;;;;;;3.30;2.17;;;12.70;99.90;;;;;;5043295;28;20736;-62
2022/09/14 05:01:12;;;;;;;4.03;2.20;;;12.70;99.90;;;;;;5055922;28;20191;-62
2022/09/14 05:03:39;;;;;;;5.47;3.10;;;12.80;99.90;;;;;;5044176;28;20206;-63
2022/09/14 05:06:10;;;;;;;7.23;2.70;;;12.80;99.90;;;;;;5051477;28;20213;-62
2022/09/14 05:08:37;;;;;;;11.27;2.90;;;12.80;99.90;;;;;;5045605;28;20737;-63
2022/09/14 05:11:04;;;;;;;4.73;3.13;;;12.90;99.90;;;;;;5044830;28;20204;-63
2022/09/14 05:13:30;;;;;;;4.90;3.30;;;12.90;99.90;;;;;;5059547;28;20219;-63
2022/09/14 05:16:07;;;;;;;9.87;4.40;;;12.90;99.90;;;;;;5054748;28;20215;-63
2022/09/14 05:18:32;;;;;;;6.57;3.27;;;12.90;99.90;;;;;;5044273;28;20281;-64
2022/09/14 05:21:03;;;;;;;8.07;3.17;;;12.90;99.90;;;;;;5046890;28;20328;-63
2022/09/14 05:23:29;;;;;;;5.80;3.30;;;12.90;99.90;;;;;;5044962;28;20286;-63
2022/09/14 05:25:55;;;;;;;6.00;3.27;;;12.90;99.90;;;;;;5051145;28;20194;-63
2022/09/14 05:28:20;;;;;;;3.20;3.00;;;12.90;99.90;;;;;;5044255;28;20220;-63
2022/09/14 05:30:46;;;;;;;5.07;2.40;;;12.90;99.90;;;;;;5052931;28;20200;-63
2022/09/14 05:33:12;;;;;;;4.03;2.80;;;12.90;99.90;;;;;;5055047;28;20208;-62
2022/09/14 05:35:37;;;;;;;6.57;3.10;;;12.80;99.90;;;;;;5060594;28;20209;-62
2022/09/14 05:38:02;;;;;;;8.77;3.73;;;12.80;99.90;;;;;;5055896;28;20290;-62
2022/09/14 05:40:28;;;;;;;10.47;3.40;;;12.80;99.90;;;;;;5050352;28;20289;-63
2022/09/14 05:42:53;;;;;;;4.73;3.07;;;12.90;99.90;;;;;;5053513;28;20682;-63
2022/09/14 05:45:19;;;;;;;4.97;3.63;;;12.90;99.90;;;;;;5051486;28;20332;-63
2022/09/14 05:47:44;;;;;;;3.97;3.37;;;12.90;99.90;;;;;;5054749;28;20280;-63
2022/09/14 05:50:10;;;;;;;6.87;3.43;;;12.90;99.90;;;;;;5055576;28;20194;-63
2022/09/14 05:52:35;;;;;;;5.53;3.30;;;13.00;99.90;;;;;;5055903;28;20192;-62
2022/09/14 05:55:01;;;;;;;10.73;2.60;;;13.00;99.90;;;;;;5060662;28;20978;-62
2022/09/14 05:57:26;;;;;;;3.47;2.53;;;13.00;99.90;;;;;;5046094;28;20242;-62
2022/09/14 05:59:52;;;;;;;4.27;2.33;;;13.10;99.90;;;;;;5047960;28;20720;-62
2022/09/14 06:02:17;;;;;;;7.73;2.90;;;13.10;99.90;;;;;;5049137;28;20202;-62
2022/09/14 06:04:43;;;;;;;5.70;2.67;;;13.10;99.90;;;;;;5054817;28;20183;-63
2022/09/14 06:07:08;;;;;;;6.00;2.90;;;13.10;99.90;;;;;;5049362;28;20669;-61
2022/09/14 06:09:34;;;;;;;5.27;2.67;;;13.10;99.90;;;;;;5055326;28;20218;-62
2022/09/14 06:11:59;;;;;;;7.50;3.13;;;13.10;99.90;;;;;;5066474;28;20284;-61
2022/09/14 06:14:24;;;;;;;4.43;3.07;;;13.10;99.90;;;;;;5056159;28;20209;-61
2022/09/14 06:16:50;;;;;;;4.03;2.40;;;13.10;99.90;;;;;;5058760;28;20292;-62
2022/09/14 06:19:16;;;;;;;4.47;2.63;;;13.10;99.90;;;;;;5059919;28;20206;-62
2022/09/14 06:21:42;;;;;;;6.50;2.73;;;13.20;99.90;;;;;;5056935;28;20296;-62
2022/09/14 06:24:11;;;;;;;9.67;3.50;;;13.30;99.90;;;;;;5058647;28;20202;-62
2022/09/14 06:26:36;;;;;;;7.17;3.23;;;13.30;99.90;;;;;;5053974;28;20966;-63
2022/09/14 06:29:02;;;;;;;10.03;2.90;;;13.40;99.90;;;;;;5057544;28;20241;-63
2022/09/14 06:31:28;;;;;;;6.20;3.23;;;13.40;99.90;;;;;;5055579;28;20201;-63
2022/09/14 06:33:53;;;;;;;5.27;3.17;;;13.40;99.90;;;;;;5064315;28;20566;-63
2022/09/14 06:36:21;;;;;;;8.77;3.30;;;13.50;99.90;;;;;;5064917;28;20225;-62
2022/09/14 06:38:51;;;;;;;8.83;3.50;;;13.60;99.90;;;;;;5045490;28;20203;-63
2022/09/14 06:41:21;;;;;;;5.20;3.37;;;13.70;99.90;;;;;;5055034;28;20190;-63
2022/09/14 06:43:47;;;;;;;7.67;3.47;;;13.70;99.90;;;;;;5045788;28;20748;-63
2022/09/14 06:46:22;;;;;;;10.73;4.37;;;13.80;99.90;;;;;;5051829;28;20194;-62
2022/09/14 06:48:49;;;;;;;6.17;3.37;;;13.90;99.90;;;;;;5056891;28;20434;-63
2022/09/14 06:51:23;;;;;;;11.87;4.10;;;14.00;99.90;;;;;;5057291;28;20206;-62
2022/09/14 06:53:49;;;;;;;7.20;3.17;;;14.10;99.90;;;;;;5045789;28;20213;-62
2022/09/14 06:56:15;;;;;;;12.87;3.87;;;14.20;99.90;;;;;;5051530;28;20217;-62
2022/09/14 06:58:41;;;;;;;4.23;3.07;;;14.40;99.90;;;;;;5050190;28;20767;-62
2022/09/14 07:01:10;;;;;;;9.50;3.60;;;14.40;99.90;;;;;;5050062;28;20265;-63
2022/09/14 07:03:37;;;;;;;7.40;2.97;;;14.60;99.90;;;;;;5056086;28;20259;-63
2022/09/14 07:06:05;;;;;;;7.27;3.63;;;14.70;99.90;;;;;;5062128;28;20672;-63
2022/09/14 07:08:33;;;;;;;5.50;2.57;;;14.80;99.90;;;;;;5053959;28;20233;-63
2022/09/14 07:10:59;;;;;;;7.60;3.17;;;14.90;99.90;;;;;;5055555;28;20232;-63
2022/09/14 07:13:26;;;;;;;6.20;2.87;;;14.80;99.90;;;;;;5054141;28;20579;-69
2022/09/14 07:15:52;;;;;;;9.20;2.70;;;14.80;99.90;;;;;;5056427;28;20701;-69
2022/09/14 07:18:17;;;;;;;7.97;2.63;;;14.70;99.90;;;;;;5056813;28;20198;-65
2022/09/14 07:20:43;;;;;;;7.30;2.97;;;14.70;99.90;;;;;;5049689;28;20195;-64
2022/09/14 07:23:08;;;;;;;7.00;3.50;;;14.70;99.90;;;;;;5053843;28;20201;-64
2022/09/14 07:25:34;;;;;;;10.43;3.23;;;14.80;99.90;;;;;;5050454;28;20187;-64
2022/09/14 07:28:00;;;;;;;5.07;2.83;;;14.90;99.90;;;;;;5048812;28;20203;-63
2022/09/14 07:30:26;;;;;;;10.03;3.50;;;15.00;99.90;;;;;;5055072;28;20231;-63
2022/09/14 07:32:53;;;;;;;5.67;3.30;;;15.10;99.90;;;;;;5052124;28;20214;-65
2022/09/14 07:35:18;;;;;;;7.00;3.03;;;15.20;99.90;;;;;;5058456;28;20608;-65
2022/09/14 07:37:44;;;;;;;4.03;2.50;;;15.30;99.90;;;;;;5056887;28;20241;-65
2022/09/14 07:40:10;;;;;;;4.83;3.17;;;15.40;99.90;;;;;;5054350;28;20285;-64
2022/09/14 07:42:36;;;;;;;8.87;3.10;;;15.60;99.90;;;;;;5052915;28;20182;-64
2022/09/14 07:45:05;;;;;;;6.63;3.10;;;15.70;99.90;;;;;;5056445;28;20600;-64
2022/09/14 08:00:50;;;;;;;8.37;1.83;;;16.60;99.90;;;;;;5001624;28;20267;-62
2022/09/14 08:03:16;;;;;;;6.03;2.03;;;16.60;99.90;;;;;;5006131;28;20219;-62
2022/09/14 08:12:26;;;;;;;3.77;1.77;;;16.60;99.90;;;;;;5005856;28;20226;-64
2022/09/14 08:14:52;;;;;;;9.90;2.00;;;16.70;99.90;;;;;;5009748;28;20177;-61
2022/09/14 08:17:20;;;;;;;6.77;1.73;;;16.70;99.90;;;;;;5024903;28;20231;-63
2022/09/14 08:19:46;;;;;;;5.10;2.00;;;16.90;99.90;;;;;;5022792;28;20194;-62
2022/09/14 08:22:11;;;;;;;5.57;3.23;;;17.00;99.90;;;;;;5005365;28;20192;-63
2022/09/14 08:24:37;;;;;;;6.07;2.23;;;17.10;99.90;;;;;;5005046;28;20215;-63
2022/09/14 08:27:03;;;;;;;7.47;2.23;;;17.10;99.90;;;;;;5010545;28;20203;-63
2022/09/14 08:29:28;;;;;;;4.67;2.00;;;17.20;99.90;;;;;;5015363;28;20175;-63
2022/09/14 08:31:54;;;;;;;5.10;2.20;;;17.30;99.90;;;;;;5010740;28;20257;-63
2022/09/14 08:34:19;;;;;;;5.03;1.70;;;17.50;99.90;;;;;;5014489;28;20642;-63
2022/09/14 08:36:46;;;;;;;5.33;2.60;;;17.70;99.90;;;;;;5019434;28;20214;-64
2022/09/14 08:39:13;;;;;;;5.97;2.13;;;17.90;99.90;;;;;;5024810;28;20168;-63
2022/09/14 08:41:45;;;;;;;5.13;1.73;;;17.80;99.90;;;;;;5009150;28;20192;-65
2022/09/14 08:44:10;;;;;;;7.90;1.77;;;17.80;99.90;;;;;;5014771;28;20631;-64
2022/09/14 08:46:54;;;;;;;3.70;1.77;;;17.70;99.90;;;;;;5022243;28;20207;-63
2022/09/14 08:49:31;;;;;;;5.93;2.33;;;17.80;99.90;;;;;;5007703;28;20180;-63
2022/09/14 08:51:56;;;;;;;8.27;2.10;;;17.90;99.90;;;;;;5015015;28;20302;-65
2022/09/14 08:54:22;;;;;;;3.10;1.63;;;17.80;99.90;;;;;;5020269;28;20312;-65
2022/09/14 08:57:06;;;;;;;11.90;2.90;;;18.00;99.90;;;;;;5007588;28;20228;-63
2022/09/14 08:59:50;;;;;;;5.67;1.83;;;18.10;99.90;;;;;;5001228;28;20196;-62
2022/09/14 09:02:57;;;;;;;6.57;2.20;;;18.20;99.90;;;;;;5013563;28;20208;-63
2022/09/14 09:05:31;;;;;;;5.87;1.80;;;18.20;99.90;;;;;;5008465;28;20291;-65
2022/09/14 09:08:10;;;;;;;8.70;2.13;;;18.00;99.90;;;;;;5018946;28;20255;-65
2022/09/14 09:10:37;;;;;;;6.13;1.73;;;17.90;99.90;;;;;;5009961;28;20226;-60
2022/09/14 09:13:05;;;;;;;5.77;2.60;;;17.80;99.90;;;;;;5023750;28;20185;-66
2022/09/14 09:15:44;;;;;;;6.57;2.37;;;17.80;99.90;;;;;;5015187;28;20191;-62
2022/09/14 09:18:28;;;;;;;6.67;2.73;;;17.90;99.90;;;;;;5018403;28;20178;-70
2022/09/14 09:21:01;;;;;;;6.43;2.87;;;18.00;99.90;;;;;;5023457;28;20234;-65
2022/09/14 09:23:29;;;;;;;7.20;2.07;;;17.90;99.90;;;;;;5022566;28;20268;-63
2022/09/14 09:26:03;;;;;;;8.37;2.00;;;18.00;99.90;;;;;;5020438;28;20193;-64
2022/09/14 09:28:29;;;;;;;6.13;2.07;;;18.10;99.90;;;;;;5017601;28;20325;-63
2022/09/14 09:30:59;;;;;;;3.13;1.53;;;18.20;99.90;;;;;;5015470;28;20217;-63
2022/09/14 09:33:26;;;;;;;5.00;1.77;;;18.20;99.90;;;;;;5016189;28;20764;-63
2022/09/14 09:35:53;;;;;;;5.70;2.00;;;18.20;99.90;;;;;;5014992;28;20216;-63
2022/09/14 09:38:23;;;;;;;3.87;1.83;;;17.90;99.90;;;;;;5015639;28;20189;-63
2022/09/14 09:41:04;;;;;;;6.90;2.00;;;17.90;99.90;;;;;;5021545;28;21043;-63
2022/09/14 09:43:29;;;;;;;6.77;2.00;;;17.90;99.90;;;;;;5027575;28;20188;-63
2022/09/14 09:46:04;;;;;;;5.60;1.97;;;18.10;99.90;;;;;;5030986;28;20220;-63
2022/09/14 09:48:40;;;;;;;5.83;1.97;;;18.30;99.90;;;;;;5027452;28;20224;-63
2022/09/14 09:51:15;;;;;;;3.27;1.67;;;18.40;99.90;;;;;;5006251;28;20202;-81
2022/09/14 09:53:55;;;;;;;6.03;2.23;;;18.50;99.90;;;;;;5039339;28;20246;-63
2022/09/14 09:56:31;;;;;;;7.40;2.53;;;18.60;99.90;;;;;;5020608;28;20219;-63
2022/09/14 09:58:57;;;;;;;8.50;2.50;;;18.40;99.90;;;;;;5024381;28;20219;-63
2022/09/14 10:01:40;;;;;;;5.73;2.03;;;18.40;99.90;;;;;;5021456;28;20247;-64
2022/09/14 10:04:18;;;;;;;5.37;1.80;;;18.50;99.90;;;;;;5018485;28;20188;-63
2022/09/14 10:06:48;;;;;;;9.87;2.33;;;18.50;99.90;;;;;;5024942;28;20207;-63
2022/09/14 10:09:17;;;;;;;4.33;2.50;;;18.50;99.90;;;;;;5024536;28;20193;-63
2022/09/14 10:11:45;;;;;;;4.40;2.00;;;18.40;99.90;;;;;;5016502;28;20213;-62
2022/09/14 10:14:27;;;;;;;5.37;2.17;;;18.30;99.90;;;;;;5021381;28;20184;-62
2022/09/14 10:17:02;;;;;;;6.23;1.73;;;18.30;99.90;;;;;;5011601;28;20248;-65
2022/09/14 10:19:29;;;;;;;5.33;1.97;;;18.20;99.90;;;;;;5017894;28;20175;-65
2022/09/14 10:22:13;;;;;;;5.40;1.97;;;18.30;99.90;;;;;;5014796;28;20197;-65
2022/09/14 10:24:38;;;;;;;4.93;1.80;;;18.30;99.90;;;;;;5016249;28;20541;-65
2022/09/14 10:27:35;;;;;;;4.87;2.00;;;18.40;99.90;;;;;;5018588;28;20805;-63
2022/09/14 10:30:03;;;;;;;7.27;1.73;;;18.50;99.90;;;;;;5020498;28;20254;-63
2022/09/14 10:32:30;;;;;;;5.20;1.73;;;18.80;99.90;;;;;;5025208;28;20294;-63
2022/09/14 10:34:56;;;;;;;5.67;1.23;;;18.80;99.90;;;;;;5029325;28;20279;-65
2022/09/14 10:37:30;;;;;;;5.27;2.10;;;18.90;99.90;;;;;;5015355;28;20218;-64
2022/09/14 10:40:19;;;;;;;8.30;1.97;;;19.00;99.90;;;;;;5015194;28;20244;-64
2022/09/14 10:43:11;;;;;;;16.37;2.23;;;19.20;99.90;;;;;;5017405;28;20214;-64
2022/09/14 10:45:53;;;;;;;4.50;1.70;;;19.10;99.90;;;;;;5013368;28;20196;-65
2022/09/14 10:48:52;;;;;;;6.57;1.73;;;19.30;99.90;;;;;;5000962;28;20207;-65
2022/09/14 10:51:44;;;;;;;2.67;1.63;;;19.40;99.90;;;;;;5008349;28;20228;-63
2022/09/14 10:54:15;;;;;;;5.93;1.57;;;19.70;99.90;;;;;;5021473;28;20261;-68
2022/09/14 10:57:07;;;;;;;7.93;2.67;;;19.90;99.90;;;;;;5038201;28;20213;-67
2022/09/14 10:59:55;;;;;;;4.27;2.00;;;20.40;99.90;;;;;;5019761;28;20191;-65
2022/09/14 11:02:42;;;;;;;6.97;1.60;;;20.60;98.70;;;;;;5005337;28;20218;-65
2022/09/14 11:05:20;;;;;;;7.43;1.83;;;20.30;98.70;;;;;;5019391;28;20245;-65
2022/09/14 11:08:04;;;;;;;2.57;1.30;;;20.20;98.50;;;;;;4999184;28;20309;-65
2022/09/14 11:10:49;;;;;;;5.53;2.40;;;20.20;99.10;;;;;;5028104;28;20201;-64
2022/09/14 11:13:40;;;;;;;4.10;1.47;;;20.50;98.90;;;;;;5000259;28;20191;-65
2022/09/14 11:16:14;;;;;;;4.77;2.20;;;20.80;98.40;;;;;;5017844;28;20252;-65
2022/09/14 11:19:23;;;;;;;4.80;1.57;;;21.00;98.60;;;;;;5023086;28;20194;-64
2022/09/14 11:22:01;;;;;;;5.60;1.53;;;20.70;97.40;;;;;;5005612;28;20202;-65
2022/09/14 11:24:43;;;;;;;5.47;1.50;;;20.40;98.20;;;;;;5013004;28;20194;-64
2022/09/14 11:27:37;;;;;;;7.53;1.97;;;20.40;97.60;;;;;;5005929;28;20250;-64
2022/09/14 11:30:10;;;;;;;6.57;2.17;;;20.40;97.60;;;;;;5006214;28;20187;-65
2022/09/14 11:32:57;;;;;;;6.27;2.13;;;20.10;97.90;;;;;;5006071;28;20215;-65
2022/09/14 11:35:49;;;;;;;3.07;1.47;;;19.90;97.60;;;;;;5005021;28;20595;-65
2022/09/14 11:38:19;;;;;;;3.83;1.60;;;19.80;98.50;;;;;;5006784;28;20659;-82
2022/09/14 11:40:54;;;;;;;4.93;1.80;;;20.00;98.80;;;;;;5033460;28;20215;-66
2022/09/14 11:43:42;;;;;;;4.10;1.70;;;20.10;98.10;;;;;;5018620;28;20646;-66
2022/09/14 11:46:22;;;;;;;3.90;1.50;;;20.20;97.70;;;;;;5013497;28;20213;-66
2022/09/14 11:49:00;;;;;;;2.57;1.37;;;20.40;98.30;;;;;;5009414;28;20627;-65
2022/09/14 11:51:49;;;;;;;4.93;1.80;;;20.80;97.80;;;;;;5015742;28;20209;-64
2022/09/14 11:54:17;;;;;;;5.83;1.90;;;20.90;97.60;;;;;;5022655;28;20538;-65
2022/09/14 11:56:50;;;;;;;3.70;1.53;;;20.90;97.30;;;;;;5030905;28;20234;-65
2022/09/14 11:59:49;;;;;;;5.23;1.73;;;20.80;97.00;;;;;;5022077;28;20190;-67
2022/09/14 12:02:26;;;;;;;3.60;1.60;;;20.50;98.10;;;;;;5008211;28;20214;-66
2022/09/14 12:05:04;;;;;;;2.80;1.40;;;20.40;98.00;;;;;;5034372;28;20210;-66
2022/09/14 12:07:38;;;;;;;2.47;1.50;;;20.20;98.30;;;;;;5014070;28;20716;-66
2022/09/14 12:10:13;;;;;;;6.27;1.83;;;20.30;98.30;;;;;;5032343;28;20256;-66
2022/09/14 12:12:41;;;;;;;2.57;1.37;;;20.40;97.90;;;;;;5014978;28;20202;-66
2022/09/14 12:15:25;;;;;;;3.03;1.67;;;20.60;97.40;;;;;;5031695;28;20291;-66
2022/09/14 12:18:12;;;;;;;2.50;1.33;;;20.70;96.90;;;;;;5010166;28;20251;-66
2022/09/14 12:20:40;;;;;;;5.57;1.73;;;20.60;96.90;;;;;;5008681;28;20221;-65
2022/09/14 12:23:14;;;;;;;6.03;2.03;;;20.50;97.70;;;;;;5010592;28;20258;-68
2022/09/14 12:26:00;;;;;;;4.30;1.93;;;20.10;98.60;;;;;;5015877;28;20608;-67
2022/09/14 12:28:34;;;;;;;3.33;2.07;;;20.20;97.90;;;;;;5015398;28;20210;-67
2022/09/14 12:31:03;;;;;;;4.73;1.70;;;20.10;98.30;;;;;;5023963;28;20195;-67
2022/09/14 12:33:31;;;;;;;7.27;1.60;;;20.20;98.10;;;;;;5011781;28;20231;-67
2022/09/14 12:36:05;;;;;;;6.63;1.80;;;20.20;97.80;;;;;;5016194;28;20703;-68
2022/09/14 12:38:30;;;;;;;3.70;1.27;;;20.10;98.10;;;;;;5042377;28;20370;-67
2022/09/14 12:40:59;;;;;;;5.87;2.10;;;20.10;98.30;;;;;;5035765;28;20343;-67
2022/09/14 12:43:34;;;;;;;5.87;2.10;;;20.00;97.90;;;;;;5014849;28;20664;-68
2022/09/14 12:46:34;;;;;;;5.00;1.47;;;20.10;98.20;;;;;;5025888;28;20208;-66
2022/09/14 12:49:21;;;;;;;3.40;1.77;;;20.10;98.30;;;;;;5014870;28;20234;-68
2022/09/14 12:51:48;;;;;;;8.03;2.03;;;20.20;98.60;;;;;;5000273;28;20237;-67
2022/09/14 12:54:51;;;;;;;8.83;2.73;;;20.40;98.00;;;;;;5034726;28;20251;-66
2022/09/14 12:57:17;;;;;;;7.13;1.90;;;20.70;97.60;;;;;;5011703;28;20224;-67
2022/09/14 12:59:48;;;;;;;2.50;1.47;;;21.00;97.20;;;;;;5041696;28;20198;-66
2022/09/14 13:02:34;;;;;;;4.07;1.70;;;21.60;96.60;;;;;;5007009;28;20200;-68
2022/09/14 13:05:02;;;;;;;5.40;2.10;;;22.20;95.20;;;;;;5013881;28;20181;-68
2022/09/14 13:07:31;;;;;;;7.03;2.77;;;22.70;94.70;;;;;;5015095;28;20678;-69
2022/09/14 13:09:58;;;;;;;5.73;1.73;;;22.90;94.00;;;;;;5027625;28;20202;-67
2022/09/14 13:12:35;;;;;;;2.30;1.53;;;23.10;93.30;;;;;;5021066;28;20310;-68
2022/09/14 13:15:24;;;;;;;4.20;1.80;;;23.00;93.20;;;;;;5015258;28;20263;-65
2022/09/14 13:18:04;;;;;;;4.87;1.80;;;22.20;93.50;;;;;;5012495;28;20622;-69
2022/09/14 13:20:33;;;;;;;4.30;1.87;;;21.60;94.30;;;;;;5014069;28;20253;-67
2022/09/14 13:23:01;;;;;;;5.83;2.93;;;21.40;94.10;;;;;;5014055;28;20520;-68
2022/09/14 13:25:35;;;;;;;4.40;1.30;;;20.80;95.20;;;;;;5018646;28;20188;-69
2022/09/14 13:28:06;;;;;;;6.27;2.20;;;20.70;95.80;;;;;;5015007;28;20200;-69
2022/09/14 13:30:33;;;;;;;8.27;2.73;;;20.80;95.80;;;;;;5014881;28;20194;-70